Flat Rock, Illinois
Current Conditions -  °F | °C
As of 6:35 AM on Sunday 23 Nov 2014 (Local Time) from KRSV Reporting Station
Clear Clear  
Wind Chill: 51°   Ceiling: Unl
Heat Index: 51°   Visibility: 10mi
Dew Point: 42°   Wind: 10mph
Humidity: 70%   Direction: 160°SSE
Pressure: 29.87"   Gusts: NA
Location:  38.9°N, 87.67°W
Report Text: KRSV 231235Z AUTO 16009KT 10SM CLR 11/05 A2987 RMK AO2 T01050053
Loading
Personal Weather Stations






























Interactive Weather Map New forecast layout! Learn more

10-Day Weather Forecast

Advertisements
Track Severe Weather on mobile